createdAt,value
2022-10-31T00:02:18.992Z,12.99
2022-10-31T00:04:46.997Z,12.80
2022-10-31T00:07:14.912Z,12.86
2022-10-31T00:09:42.880Z,12.85
2022-10-31T00:12:10.752Z,12.87
2022-10-31T00:14:38.612Z,12.77
2022-10-31T00:17:07.900Z,12.76
2022-10-31T00:19:35.775Z,12.75
2022-10-31T00:22:03.675Z,12.88
2022-10-31T00:24:31.542Z,12.80
2022-10-31T00:26:59.437Z,12.72
2022-10-31T00:29:27.313Z,12.87
2022-10-31T00:31:55.493Z,12.74
2022-10-31T00:34:24.787Z,12.68
2022-10-31T00:36:52.705Z,12.71
2022-10-31T00:39:21.000Z,12.76
2022-10-31T00:41:48.872Z,12.74
2022-10-31T00:44:16.857Z,12.78
2022-10-31T00:46:44.736Z,12.75
2022-10-31T00:49:13.347Z,12.76
2022-10-31T00:51:42.796Z,12.76
2022-10-31T00:54:10.745Z,12.68
2022-10-31T00:56:38.645Z,12.76
2022-10-31T00:59:06.567Z,12.73
2022-10-31T01:01:34.661Z,12.75
2022-10-31T01:04:02.655Z,12.71
2022-10-31T01:06:30.530Z,12.76
2022-10-31T01:09:00.266Z,12.72
2022-10-31T01:11:28.179Z,12.72
2022-10-31T01:13:56.172Z,12.71
2022-10-31T01:16:25.870Z,12.76
2022-10-31T01:18:53.886Z,12.81
2022-10-31T01:21:23.545Z,12.84
2022-10-31T01:23:51.780Z,12.94
2022-10-31T01:26:22.751Z,12.75
2022-10-31T01:28:51.795Z,12.85
2022-10-31T01:31:21.073Z,12.90
2022-10-31T01:33:49.011Z,12.75
2022-10-31T01:36:19.871Z,12.97
2022-10-31T01:38:48.106Z,12.79
2022-10-31T01:41:17.706Z,12.84
2022-10-31T01:43:50.725Z,12.81
2022-10-31T01:46:21.500Z,13.08
2022-10-31T01:48:50.093Z,13.06
2022-10-31T01:51:18.883Z,12.90
2022-10-31T01:53:47.117Z,12.87
2022-10-31T01:56:16.264Z,12.85
2022-10-31T01:58:44.657Z,12.89
2022-10-31T02:01:15.503Z,12.84
2022-10-31T02:03:43.631Z,12.85
2022-10-31T02:06:20.369Z,12.76
2022-10-31T02:08:48.399Z,12.76
2022-10-31T02:11:16.848Z,12.81
2022-10-31T02:13:44.805Z,12.77
2022-10-31T02:16:14.272Z,12.77
2022-10-31T02:18:42.206Z,12.82
2022-10-31T02:21:16.221Z,12.99
2022-10-31T02:24:02.721Z,12.83
2022-10-31T02:26:56.633Z,12.90
2022-10-31T02:29:57.770Z,12.85
2022-10-31T02:32:30.288Z,12.81
2022-10-31T02:35:01.081Z,12.73
2022-10-31T02:37:37.216Z,12.82
2022-10-31T02:40:10.287Z,12.78
2022-10-31T02:42:44.567Z,12.67
2022-10-31T02:45:16.335Z,12.66
2022-10-31T02:47:46.640Z,12.62
2022-10-31T02:50:16.627Z,12.68
2022-10-31T02:52:44.545Z,12.57
2022-10-31T02:55:20.478Z,12.58
2022-10-31T02:57:48.393Z,12.56
2022-10-31T03:00:16.665Z,12.55
2022-10-31T03:03:03.322Z,12.56
2022-10-31T03:05:48.447Z,12.60
2022-10-31T03:08:23.788Z,12.49
2022-10-31T03:10:56.731Z,12.47
2022-10-31T03:13:31.212Z,12.46
2022-10-31T03:16:07.126Z,12.48
2022-10-31T03:18:40.127Z,12.45
2022-10-31T03:21:10.686Z,12.42
2022-10-31T03:23:39.998Z,12.40
2022-10-31T03:26:10.074Z,12.53
2022-10-31T03:28:40.711Z,12.47
2022-10-31T03:31:10.212Z,12.48
2022-10-31T03:33:40.992Z,12.41
2022-10-31T03:36:10.484Z,12.46
2022-10-31T03:38:38.485Z,12.49
2022-10-31T03:41:08.311Z,12.57
2022-10-31T03:43:45.848Z,12.55
2022-10-31T03:46:13.836Z,12.56
2022-10-31T03:48:43.268Z,12.52
2022-10-31T03:51:17.229Z,12.52
2022-10-31T03:53:49.463Z,12.54
2022-10-31T03:56:21.989Z,12.49
2022-10-31T03:58:52.872Z,12.52
2022-10-31T04:01:22.705Z,12.57
2022-10-31T04:03:52.393Z,12.61
2022-10-31T04:06:21.405Z,12.59
2022-10-31T04:08:53.647Z,12.52
2022-10-31T04:11:24.181Z,12.55
2022-10-31T04:13:52.459Z,12.54
2022-10-31T04:16:20.952Z,12.62
2022-10-31T04:18:48.929Z,12.42
2022-10-31T04:21:18.324Z,12.49
2022-10-31T04:23:46.193Z,12.52
2022-10-31T04:26:14.781Z,12.45
2022-10-31T04:28:42.806Z,12.38
2022-10-31T04:31:12.068Z,12.44
2022-10-31T04:33:40.192Z,12.39
2022-10-31T04:36:08.408Z,12.40
2022-10-31T04:38:37.693Z,12.38
2022-10-31T04:41:05.668Z,12.33
2022-10-31T04:43:33.668Z,12.36
2022-10-31T04:46:01.638Z,12.34
2022-10-31T04:48:29.547Z,12.33
2022-10-31T04:51:01.349Z,12.33
2022-10-31T04:53:29.336Z,12.33
2022-10-31T04:56:00.269Z,12.37
2022-10-31T04:58:28.369Z,12.26
2022-10-31T05:00:57.055Z,12.28
2022-10-31T05:03:25.040Z,12.28
2022-10-31T05:05:52.991Z,12.33
2022-10-31T05:08:20.883Z,12.31
2022-10-31T05:10:48.801Z,12.38
2022-10-31T05:13:18.275Z,12.33
2022-10-31T05:15:46.269Z,12.33
2022-10-31T05:18:14.145Z,12.33
2022-10-31T05:20:42.068Z,12.31
2022-10-31T05:23:09.948Z,12.37
2022-10-31T05:25:37.844Z,12.34
2022-10-31T05:28:06.060Z,12.42
2022-10-31T05:30:35.839Z,12.40
2022-10-31T05:33:03.944Z,12.39
2022-10-31T05:35:33.163Z,12.43
2022-10-31T05:38:01.331Z,12.45
2022-10-31T05:40:29.914Z,12.38
2022-10-31T05:42:59.516Z,12.42
2022-10-31T05:45:28.099Z,12.55
2022-10-31T05:47:58.505Z,12.51
2022-10-31T05:50:28.055Z,12.46
2022-10-31T05:53:00.104Z,12.51
2022-10-31T05:55:28.169Z,12.57
2022-10-31T05:57:56.984Z,12.45
2022-10-31T06:00:26.498Z,12.52
2022-10-31T06:03:01.311Z,12.52
2022-10-31T06:05:29.320Z,12.50
2022-10-31T06:07:57.466Z,12.55
2022-10-31T06:10:26.274Z,12.52
2022-10-31T06:12:54.179Z,12.63
2022-10-31T06:15:24.375Z,12.50
2022-10-31T06:18:02.441Z,12.53
2022-10-31T06:20:30.656Z,12.53
2022-10-31T06:22:58.857Z,12.54
2022-10-31T06:25:27.073Z,12.47
2022-10-31T06:27:55.016Z,12.50
2022-10-31T06:30:23.163Z,12.58
2022-10-31T06:32:51.571Z,12.60
2022-10-31T06:35:20.864Z,12.53
2022-10-31T06:37:53.525Z,12.51
2022-10-31T06:40:21.772Z,12.46
2022-10-31T06:42:49.667Z,12.41
2022-10-31T06:45:17.577Z,12.45
2022-10-31T06:48:15.581Z,12.42
2022-10-31T06:50:42.233Z,12.49
2022-10-31T06:55:43.750Z,12.42
2022-10-31T06:58:12.633Z,12.36
2022-10-31T07:00:40.575Z,12.40
2022-10-31T07:03:11.719Z,12.47
2022-10-31T07:05:39.624Z,12.45
2022-10-31T07:08:11.031Z,12.47
2022-10-31T07:10:40.738Z,12.41
2022-10-31T07:13:12.295Z,12.43
2022-10-31T07:15:41.174Z,12.46
2022-10-31T07:18:10.570Z,12.45
2022-10-31T07:20:38.611Z,12.43
2022-10-31T07:23:08.184Z,12.45
2022-10-31T07:25:36.053Z,12.47
2022-10-31T07:28:04.346Z,12.47
2022-10-31T07:30:32.369Z,12.47
2022-10-31T07:33:00.468Z,12.48
2022-10-31T07:35:30.118Z,12.43
2022-10-31T07:37:58.829Z,12.45
2022-10-31T07:40:28.307Z,12.43
2022-10-31T07:42:56.207Z,12.43
2022-10-31T07:45:24.148Z,12.42
2022-10-31T07:47:53.414Z,12.47
2022-10-31T07:50:22.674Z,12.44
2022-10-31T07:52:59.574Z,12.45
2022-10-31T07:55:29.225Z,12.55
2022-10-31T07:58:01.070Z,12.56
2022-10-31T08:00:29.344Z,12.54
2022-10-31T08:03:01.690Z,12.48
2022-10-31T08:05:29.999Z,12.45
2022-10-31T08:07:59.077Z,12.45
2022-10-31T08:10:29.648Z,12.47
2022-10-31T08:12:59.048Z,12.45
2022-10-31T08:15:27.558Z,12.37
2022-10-31T08:17:55.687Z,12.40
2022-10-31T08:20:23.881Z,12.33
2022-10-31T08:22:56.357Z,12.37
2022-10-31T08:25:24.491Z,12.34
2022-10-31T08:27:54.865Z,12.25
2022-10-31T08:30:24.128Z,12.27
2022-10-31T08:33:00.332Z,12.32
2022-10-31T08:35:28.260Z,12.32
2022-10-31T08:37:56.665Z,12.35
2022-10-31T08:40:24.924Z,12.47
2022-10-31T08:43:00.144Z,12.53
2022-10-31T08:45:28.064Z,12.50
2022-10-31T08:47:59.457Z,12.57
2022-10-31T08:50:27.928Z,12.67
2022-10-31T08:53:10.266Z,12.59
2022-10-31T08:55:39.205Z,12.64
2022-10-31T08:58:11.729Z,12.77
2022-10-31T09:00:39.807Z,12.54
2022-10-31T09:03:10.833Z,12.42
2022-10-31T09:05:38.844Z,12.53
2022-10-31T09:08:11.642Z,12.59
2022-10-31T09:10:43.220Z,12.64
2022-10-31T09:13:14.321Z,12.59
2022-10-31T09:15:43.442Z,12.52
2022-10-31T09:18:11.821Z,12.41
2022-10-31T09:20:40.775Z,12.57
2022-10-31T09:23:10.696Z,12.74
2022-10-31T09:25:39.084Z,12.79
2022-10-31T09:28:08.716Z,12.75
2022-10-31T09:30:38.275Z,12.56
2022-10-31T09:33:08.597Z,12.62
2022-10-31T09:35:36.537Z,12.43
2022-10-31T09:38:05.867Z,12.63
2022-10-31T09:40:37.039Z,12.69
2022-10-31T09:43:13.755Z,12.58
2022-10-31T09:45:49.407Z,12.63
2022-10-31T09:48:34.504Z,12.79
2022-10-31T09:51:06.867Z,12.95
2022-10-31T09:53:39.762Z,12.62
2022-10-31T09:56:10.136Z,12.49
2022-10-31T09:58:43.300Z,12.86
2022-10-31T10:01:27.910Z,12.76
2022-10-31T10:03:59.035Z,12.81
2022-10-31T10:06:28.444Z,12.87
2022-10-31T10:08:57.443Z,12.91
2022-10-31T10:11:35.464Z,12.93
2022-10-31T10:14:12.829Z,13.01
2022-10-31T10:16:56.327Z,12.96
2022-10-31T10:19:35.155Z,12.60
2022-10-31T10:22:07.632Z,12.69
2022-10-31T10:24:47.993Z,12.63
2022-10-31T10:27:23.351Z,12.77
2022-10-31T10:29:55.399Z,12.60
2022-10-31T10:32:26.804Z,12.87
2022-10-31T10:34:59.315Z,13.19
2022-10-31T10:37:32.649Z,13.35
2022-10-31T10:40:09.375Z,13.30
2022-10-31T10:42:54.663Z,13.27
2022-10-31T10:45:40.494Z,13.20
2022-10-31T10:48:17.602Z,13.26
2022-10-31T10:50:50.411Z,13.60
2022-10-31T10:53:36.165Z,13.66
2022-10-31T10:56:13.080Z,13.43
2022-10-31T10:58:42.717Z,13.69
2022-10-31T11:03:48.656Z,13.53
2022-10-31T11:06:23.198Z,13.32
2022-10-31T11:08:51.544Z,13.31
2022-10-31T11:11:28.726Z,13.57
2022-10-31T11:14:00.502Z,13.47
2022-10-31T11:16:39.557Z,13.47
2022-10-31T11:19:18.462Z,13.78
2022-10-31T11:21:52.640Z,13.70
2022-10-31T11:24:23.756Z,13.59
2022-10-31T11:26:52.901Z,13.62
2022-10-31T11:29:25.776Z,13.40
2022-10-31T11:31:55.792Z,13.65
2022-10-31T11:34:32.693Z,13.27
2022-10-31T11:37:04.863Z,13.16
2022-10-31T11:39:32.809Z,13.15
2022-10-31T11:42:07.827Z,13.63
2022-10-31T11:44:36.878Z,13.72
2022-10-31T11:47:06.639Z,13.21
2022-10-31T11:49:38.599Z,13.19
2022-10-31T11:52:23.161Z,13.33
2022-10-31T11:54:53.259Z,13.24
2022-10-31T11:57:30.579Z,13.34
2022-10-31T11:59:59.952Z,13.30
2022-10-31T12:02:28.554Z,13.83
2022-10-31T12:05:03.380Z,13.95
2022-10-31T12:07:31.311Z,13.75
2022-10-31T12:10:00.489Z,13.41
2022-10-31T12:12:44.508Z,13.33
2022-10-31T12:15:34.582Z,13.40
2022-10-31T12:18:39.188Z,13.10
2022-10-31T12:21:22.279Z,13.11
2022-10-31T12:24:07.892Z,12.97
2022-10-31T12:26:41.419Z,13.26
2022-10-31T12:29:20.481Z,13.48
2022-10-31T12:32:00.267Z,13.85
2022-10-31T12:34:58.125Z,13.45
2022-10-31T12:37:37.747Z,13.66
2022-10-31T12:40:29.661Z,13.73
2022-10-31T12:43:07.647Z,13.66
2022-10-31T12:45:54.794Z,13.51
2022-10-31T12:48:36.851Z,13.51
2022-10-31T12:51:09.368Z,13.57
2022-10-31T12:53:46.648Z,13.40
2022-10-31T12:56:27.221Z,13.55
2022-10-31T12:58:58.998Z,13.43
2022-10-31T13:01:29.615Z,13.85
2022-10-31T13:04:00.806Z,14.04
2022-10-31T13:06:32.149Z,13.96
2022-10-31T13:09:03.210Z,13.88
2022-10-31T13:11:34.728Z,13.87
2022-10-31T13:14:20.766Z,13.84
2022-10-31T13:16:49.510Z,14.05
2022-10-31T13:19:20.081Z,13.92
2022-10-31T13:21:56.465Z,14.17
2022-10-31T13:24:31.492Z,14.18
2022-10-31T13:27:00.661Z,13.98
2022-10-31T13:29:32.687Z,14.27
2022-10-31T13:32:02.155Z,13.90
2022-10-31T13:34:33.516Z,13.71
2022-10-31T13:37:06.613Z,13.74
2022-10-31T13:39:57.337Z,13.68
2022-10-31T13:42:30.657Z,13.55
2022-10-31T13:45:10.834Z,13.74
2022-10-31T13:47:38.744Z,13.81
2022-10-31T13:50:09.048Z,13.94
2022-10-31T13:52:38.303Z,13.74
2022-10-31T13:55:39.521Z,13.87
2022-10-31T13:58:19.061Z,14.00
2022-10-31T14:00:47.006Z,14.25
2022-10-31T14:03:36.267Z,14.41
2022-10-31T14:06:10.597Z,14.53
2022-10-31T14:08:41.780Z,14.51
2022-10-31T14:11:12.261Z,14.50
2022-10-31T14:13:47.179Z,14.56
2022-10-31T14:16:21.020Z,14.53
2022-10-31T14:18:52.844Z,14.49
2022-10-31T14:21:30.302Z,14.51
2022-10-31T14:23:58.829Z,14.47
2022-10-31T14:26:36.487Z,14.32
2022-10-31T14:29:21.715Z,14.06
2022-10-31T14:31:55.396Z,13.69
2022-10-31T14:34:27.933Z,13.59
2022-10-31T14:37:12.830Z,13.62
2022-10-31T14:39:47.544Z,13.64
2022-10-31T14:42:30.041Z,13.92
2022-10-31T14:45:15.133Z,14.11
2022-10-31T14:47:56.287Z,14.08
2022-10-31T14:50:35.531Z,14.05
2022-10-31T14:53:05.743Z,14.06
2022-10-31T14:55:34.362Z,13.90
2022-10-31T14:58:06.194Z,13.93
2022-10-31T15:00:35.474Z,13.85
2022-10-31T15:03:11.270Z,13.85
2022-10-31T15:05:45.112Z,13.91
2022-10-31T15:08:16.835Z,13.94
2022-10-31T15:10:48.060Z,14.00
2022-10-31T15:13:20.809Z,14.06
2022-10-31T15:15:52.337Z,14.05
2022-10-31T15:18:24.431Z,14.06
2022-10-31T15:20:53.104Z,14.04
2022-10-31T15:23:24.131Z,13.99
2022-10-31T15:25:52.253Z,13.92
2022-10-31T15:28:26.155Z,13.81
2022-10-31T15:30:55.382Z,13.78
2022-10-31T15:33:25.472Z,13.73
2022-10-31T15:35:58.388Z,13.66
2022-10-31T15:38:27.040Z,13.60
2022-10-31T15:41:02.850Z,13.65
2022-10-31T15:43:36.681Z,13.68
2022-10-31T15:46:05.055Z,13.61
2022-10-31T15:48:35.518Z,13.57
2022-10-31T15:51:03.741Z,13.50
2022-10-31T15:53:36.732Z,13.43
2022-10-31T15:56:06.846Z,13.37
2022-10-31T15:58:43.591Z,13.40
2022-10-31T16:01:23.173Z,13.48
2022-10-31T16:04:02.213Z,13.62
2022-10-31T16:06:30.119Z,13.63
2022-10-31T16:08:58.292Z,13.62
2022-10-31T16:11:29.761Z,13.56
2022-10-31T16:14:01.665Z,13.49
2022-10-31T16:16:35.348Z,13.49
2022-10-31T16:19:06.066Z,13.43
2022-10-31T16:21:36.412Z,13.41
2022-10-31T16:24:07.541Z,13.33
2022-10-31T16:26:35.985Z,13.32
2022-10-31T16:29:05.982Z,13.32
2022-10-31T16:31:39.898Z,13.30
2022-10-31T16:34:16.182Z,13.43
2022-10-31T16:36:44.320Z,13.45
2022-10-31T16:39:12.261Z,13.46
2022-10-31T16:41:42.058Z,13.32
2022-10-31T16:44:19.293Z,13.25
2022-10-31T16:46:47.688Z,13.32
2022-10-31T16:49:17.529Z,13.38
2022-10-31T16:51:46.577Z,13.25
2022-10-31T16:54:14.471Z,13.27
2022-10-31T16:56:44.010Z,13.24
2022-10-31T16:59:16.552Z,13.28
2022-10-31T17:01:47.293Z,13.24
2022-10-31T17:04:15.860Z,13.24
2022-10-31T17:06:44.050Z,13.17
2022-10-31T17:09:12.032Z,13.09
2022-10-31T17:11:49.206Z,13.06
2022-10-31T17:14:20.233Z,13.03
2022-10-31T17:16:48.158Z,13.04
2022-10-31T17:19:16.218Z,13.07
2022-10-31T17:21:44.286Z,13.08
2022-10-31T17:24:14.269Z,13.01
2022-10-31T17:26:42.560Z,12.99
2022-10-31T17:29:10.473Z,13.00
2022-10-31T17:31:40.066Z,13.06
2022-10-31T17:34:08.756Z,13.06
2022-10-31T17:36:37.154Z,13.08
2022-10-31T17:39:07.561Z,13.02
2022-10-31T17:41:35.562Z,12.98
2022-10-31T17:44:03.495Z,12.94
2022-10-31T17:46:31.397Z,12.90
2022-10-31T17:49:01.871Z,12.96
2022-10-31T17:51:29.758Z,13.03
2022-10-31T17:53:59.015Z,12.98
2022-10-31T17:56:26.958Z,12.95
2022-10-31T17:58:57.983Z,12.94
2022-10-31T18:01:26.045Z,12.89
2022-10-31T18:03:54.112Z,12.94
2022-10-31T18:06:23.387Z,12.92
2022-10-31T18:08:51.259Z,12.95
2022-10-31T18:11:21.811Z,12.93
2022-10-31T18:13:49.791Z,12.93
2022-10-31T18:16:19.152Z,12.98
2022-10-31T18:18:51.306Z,12.90
2022-10-31T18:21:19.447Z,12.96
2022-10-31T18:23:48.908Z,12.92
2022-10-31T18:26:16.816Z,12.85
2022-10-31T18:28:44.744Z,12.84
2022-10-31T18:31:12.628Z,12.90
2022-10-31T18:33:42.565Z,12.83
2022-10-31T18:36:11.873Z,12.86
2022-10-31T18:38:40.932Z,12.77
2022-10-31T18:41:10.629Z,12.73
2022-10-31T18:43:39.038Z,12.75
2022-10-31T18:46:08.881Z,12.81
2022-10-31T18:48:37.190Z,12.85
2022-10-31T18:53:38.529Z,12.82
2022-10-31T18:56:10.898Z,12.84
2022-10-31T18:58:38.850Z,12.87
2022-10-31T19:01:08.228Z,12.87
2022-10-31T19:03:36.357Z,12.84
2022-10-31T19:06:04.975Z,12.76
2022-10-31T19:08:33.037Z,12.80
2022-10-31T19:11:05.808Z,12.87
2022-10-31T19:13:35.537Z,12.75
2022-10-31T19:16:08.069Z,12.84
2022-10-31T19:18:35.947Z,12.70
2022-10-31T19:21:07.283Z,12.76
2022-10-31T19:23:35.304Z,12.76
2022-10-31T19:26:03.624Z,12.78
2022-10-31T19:28:32.289Z,12.67
2022-10-31T19:31:02.128Z,12.72
2022-10-31T19:33:34.965Z,12.74
2022-10-31T19:36:08.351Z,12.64
2022-10-31T19:38:36.742Z,12.61
2022-10-31T19:41:06.417Z,12.57
2022-10-31T19:43:34.558Z,12.53
2022-10-31T19:46:04.926Z,12.44
2022-10-31T19:48:32.987Z,12.37
2022-10-31T19:51:05.726Z,12.55
2022-10-31T19:53:33.912Z,12.38
2022-10-31T19:56:03.320Z,12.39
2022-10-31T19:58:33.205Z,12.37
2022-10-31T20:01:01.157Z,12.58
2022-10-31T20:03:30.413Z,12.49
2022-10-31T20:05:58.285Z,12.57
2022-10-31T20:08:26.198Z,12.54
2022-10-31T20:10:57.876Z,12.46
2022-10-31T20:13:26.148Z,12.48
2022-10-31T20:15:54.079Z,12.54
2022-10-31T20:20:58.548Z,12.50
2022-10-31T20:23:27.683Z,12.54
2022-10-31T20:25:55.556Z,12.61
2022-10-31T20:28:23.538Z,12.57
2022-10-31T20:30:51.618Z,12.59
2022-10-31T20:33:19.507Z,12.56
2022-10-31T20:35:47.468Z,12.54
2022-10-31T20:38:16.787Z,12.58
2022-10-31T20:40:44.733Z,12.53
2022-10-31T20:43:13.106Z,12.54
2022-10-31T20:45:41.040Z,12.55
2022-10-31T20:48:09.083Z,12.54
2022-10-31T20:50:39.491Z,12.49
2022-10-31T20:53:07.423Z,12.55
2022-10-31T20:55:36.691Z,12.57
2022-10-31T20:58:04.765Z,12.63
2022-10-31T21:00:32.677Z,12.61
2022-10-31T21:03:00.939Z,12.66
2022-10-31T21:05:29.016Z,12.64
2022-10-31T21:07:56.979Z,12.58
2022-10-31T21:10:24.887Z,12.67
2022-10-31T21:12:54.180Z,12.64
2022-10-31T21:15:22.056Z,12.57
2022-10-31T21:17:49.993Z,12.62
2022-10-31T21:20:17.996Z,12.61
2022-10-31T21:22:45.931Z,12.64
2022-10-31T21:25:13.830Z,12.63
2022-10-31T21:27:41.754Z,12.62
2022-10-31T21:30:11.575Z,12.61
2022-10-31T21:32:39.469Z,12.72
2022-10-31T21:35:07.758Z,12.67
2022-10-31T21:37:35.784Z,12.67
2022-10-31T21:40:03.924Z,12.63
2022-10-31T21:42:31.847Z,12.65
2022-10-31T21:44:59.726Z,12.68
2022-10-31T21:47:29.133Z,12.65
2022-10-31T21:49:57.015Z,12.66
2022-10-31T21:52:24.918Z,12.69
2022-10-31T21:54:51.864Z,12.68
2022-10-31T21:57:19.768Z,12.72
2022-10-31T21:59:48.535Z,12.70
2022-10-31T22:02:16.543Z,12.72
2022-10-31T22:04:45.823Z,12.66
2022-10-31T22:07:13.699Z,12.70
2022-10-31T22:09:47.223Z,12.66
2022-10-31T22:12:15.249Z,12.57
2022-10-31T22:17:16.198Z,12.55
2022-10-31T22:19:45.493Z,12.54
2022-10-31T22:22:13.800Z,12.50
2022-10-31T22:24:41.721Z,12.38
2022-10-31T22:27:09.638Z,12.36
2022-10-31T22:29:37.667Z,12.51
2022-10-31T22:32:05.837Z,12.55
2022-10-31T22:34:33.772Z,12.52
2022-10-31T22:37:03.393Z,12.53
2022-10-31T22:39:31.276Z,12.33
2022-10-31T22:41:59.135Z,12.26
2022-10-31T22:44:27.114Z,12.12
2022-10-31T22:46:54.989Z,12.06
2022-10-31T22:49:22.919Z,12.17
2022-10-31T22:51:51.812Z,12.18
2022-10-31T22:54:21.091Z,12.09
2022-10-31T22:56:48.996Z,12.03
2022-10-31T22:59:17.743Z,11.89
2022-10-31T23:01:46.214Z,11.89
2022-10-31T23:04:14.970Z,11.87
2022-10-31T23:06:43.088Z,11.87
2022-10-31T23:09:15.108Z,11.93
2022-10-31T23:11:44.563Z,11.98
2022-10-31T23:14:13.876Z,11.76
2022-10-31T23:16:44.428Z,11.62
2022-10-31T23:19:16.795Z,11.71
2022-10-31T23:21:59.963Z,11.68
2022-10-31T23:24:34.420Z,11.69
2022-10-31T23:27:10.189Z,11.59
2022-10-31T23:29:46.794Z,11.69
2022-10-31T23:32:18.106Z,11.58
2022-10-31T23:34:46.730Z,11.44
2022-10-31T23:37:15.040Z,11.37
2022-10-31T23:39:42.957Z,11.37
2022-10-31T23:42:12.224Z,11.33
2022-10-31T23:44:40.144Z,11.30
2022-10-31T23:47:08.235Z,11.23
2022-10-31T23:49:36.265Z,11.14
2022-10-31T23:52:04.730Z,10.99
2022-10-31T23:54:33.321Z,11.01
2022-10-31T23:57:01.539Z,11.08
2022-10-31T23:59:31.278Z,11.10
